sensor_id;sensor_type;location;lat;lon;timestamp;P1;durP1;ratioP1;P2;durP2;ratioP2
11865;SDS011;5992;52.744;6.898;2022-12-29T00:02:21;1.93;;;1.83;;
11865;SDS011;5992;52.744;6.898;2022-12-29T00:05:47;2.23;;;2.03;;
11865;SDS011;5992;52.744;6.898;2022-12-29T00:09:02;1.63;;;1.53;;
11865;SDS011;5992;52.744;6.898;2022-12-29T00:12:14;2.63;;;1.90;;
11865;SDS011;5992;52.744;6.898;2022-12-29T00:15:14;1.63;;;1.53;;
11865;SDS011;5992;52.744;6.898;2022-12-29T00:18:49;1.97;;;1.80;;
11865;SDS011;5992;52.744;6.898;2022-12-29T00:21:51;1.70;;;1.60;;
11865;SDS011;5992;52.744;6.898;2022-12-29T00:25:21;2.20;;;2.00;;
11865;SDS011;5992;52.744;6.898;2022-12-29T00:28:27;2.00;;;1.90;;
11865;SDS011;5992;52.744;6.898;2022-12-29T00:31:45;1.97;;;1.67;;
11865;SDS011;5992;52.744;6.898;2022-12-29T00:34:54;2.07;;;1.90;;
11865;SDS011;5992;52.744;6.898;2022-12-29T00:38:23;2.47;;;2.00;;
11865;SDS011;5992;52.744;6.898;2022-12-29T00:41:53;3.10;;;2.35;;
11865;SDS011;5992;52.744;6.898;2022-12-29T00:45:11;2.30;;;2.00;;
11865;SDS011;5992;52.744;6.898;2022-12-29T00:48:23;2.05;;;1.95;;
11865;SDS011;5992;52.744;6.898;2022-12-29T00:51:37;4.87;;;2.07;;
11865;SDS011;5992;52.744;6.898;2022-12-29T00:54:39;2.80;;;1.90;;
11865;SDS011;5992;52.744;6.898;2022-12-29T00:58:02;2.17;;;1.97;;
11865;SDS011;5992;52.744;6.898;2022-12-29T01:01:02;1.73;;;1.50;;
11865;SDS011;5992;52.744;6.898;2022-12-29T01:04:26;1.70;;;1.60;;
11865;SDS011;5992;52.744;6.898;2022-12-29T01:07:39;2.67;;;1.90;;
11865;SDS011;5992;52.744;6.898;2022-12-29T01:10:59;1.70;;;1.60;;
11865;SDS011;5992;52.744;6.898;2022-12-29T01:13:57;1.67;;;1.57;;
11865;SDS011;5992;52.744;6.898;2022-12-29T01:17:09;1.77;;;1.53;;
11865;SDS011;5992;52.744;6.898;2022-12-29T01:20:24;1.83;;;1.73;;
11865;SDS011;5992;52.744;6.898;2022-12-29T01:23:39;2.70;;;1.70;;
11865;SDS011;5992;52.744;6.898;2022-12-29T01:26:41;1.90;;;1.70;;
11865;SDS011;5992;52.744;6.898;2022-12-29T01:30:07;1.90;;;1.80;;
11865;SDS011;5992;52.744;6.898;2022-12-29T01:33:07;1.77;;;1.67;;
11865;SDS011;5992;52.744;6.898;2022-12-29T01:36:21;2.80;;;1.90;;
11865;SDS011;5992;52.744;6.898;2022-12-29T01:39:24;1.80;;;1.70;;
11865;SDS011;5992;52.744;6.898;2022-12-29T01:42:38;1.93;;;1.73;;
11865;SDS011;5992;52.744;6.898;2022-12-29T01:45:53;2.15;;;1.95;;
11865;SDS011;5992;52.744;6.898;2022-12-29T01:49:19;1.97;;;1.87;;
11865;SDS011;5992;52.744;6.898;2022-12-29T01:52:31;2.00;;;1.60;;
11865;SDS011;5992;52.744;6.898;2022-12-29T01:55:55;1.60;;;1.50;;
11865;SDS011;5992;52.744;6.898;2022-12-29T01:59:08;1.87;;;1.77;;
11865;SDS011;5992;52.744;6.898;2022-12-29T02:02:33;1.85;;;1.75;;
11865;SDS011;5992;52.744;6.898;2022-12-29T02:05:47;1.73;;;1.63;;
11865;SDS011;5992;52.744;6.898;2022-12-29T02:08:57;2.05;;;1.90;;
11865;SDS011;5992;52.744;6.898;2022-12-29T02:12:22;1.80;;;1.43;;
11865;SDS011;5992;52.744;6.898;2022-12-29T02:15:51;2.57;;;2.33;;
11865;SDS011;5992;52.744;6.898;2022-12-29T02:19:25;1.30;;;1.30;;
11865;SDS011;5992;52.744;6.898;2022-12-29T02:22:48;1.80;;;1.70;;
11865;SDS011;5992;52.744;6.898;2022-12-29T02:26:07;2.93;;;1.47;;
11865;SDS011;5992;52.744;6.898;2022-12-29T02:33:05;1.67;;;1.57;;
11865;SDS011;5992;52.744;6.898;2022-12-29T02:36:29;1.30;;;1.20;;
11865;SDS011;5992;52.744;6.898;2022-12-29T02:39:41;1.60;;;1.50;;
11865;SDS011;5992;52.744;6.898;2022-12-29T02:43:09;1.70;;;1.60;;
11865;SDS011;5992;52.744;6.898;2022-12-29T02:46:19;2.37;;;1.40;;
11865;SDS011;5992;52.744;6.898;2022-12-29T02:49:45;1.05;;;1.05;;
11865;SDS011;5992;52.744;6.898;2022-12-29T02:52:57;1.40;;;1.30;;
11865;SDS011;5992;52.744;6.898;2022-12-29T02:56:22;1.40;;;1.23;;
11865;SDS011;5992;52.744;6.898;2022-12-29T02:59:21;1.33;;;1.23;;
11865;SDS011;5992;52.744;6.898;2022-12-29T03:02:56;1.00;;;1.00;;
11865;SDS011;5992;52.744;6.898;2022-12-29T03:06:14;1.20;;;1.20;;
11865;SDS011;5992;52.744;6.898;2022-12-29T03:09:39;0.97;;;0.93;;
11865;SDS011;5992;52.744;6.898;2022-12-29T03:13:03;1.00;;;0.95;;
11865;SDS011;5992;52.744;6.898;2022-12-29T03:16:34;1.20;;;1.10;;
11865;SDS011;5992;52.744;6.898;2022-12-29T03:19:46;0.90;;;0.87;;
11865;SDS011;5992;52.744;6.898;2022-12-29T03:23:12;0.85;;;0.85;;
11865;SDS011;5992;52.744;6.898;2022-12-29T03:26:40;1.27;;;0.90;;
11865;SDS011;5992;52.744;6.898;2022-12-29T03:30:08;0.80;;;0.73;;
11865;SDS011;5992;52.744;6.898;2022-12-29T03:33:32;0.70;;;0.70;;
11865;SDS011;5992;52.744;6.898;2022-12-29T03:36:57;2.20;;;1.10;;
11865;SDS011;5992;52.744;6.898;2022-12-29T03:40:21;1.63;;;0.80;;
11865;SDS011;5992;52.744;6.898;2022-12-29T03:43:49;2.30;;;1.00;;
11865;SDS011;5992;52.744;6.898;2022-12-29T03:47:05;0.90;;;0.90;;
11865;SDS011;5992;52.744;6.898;2022-12-29T03:50:29;1.47;;;1.37;;
11865;SDS011;5992;52.744;6.898;2022-12-29T03:53:42;0.87;;;0.87;;
11865;SDS011;5992;52.744;6.898;2022-12-29T03:56:55;0.70;;;0.70;;
11865;SDS011;5992;52.744;6.898;2022-12-29T04:00:20;1.30;;;1.07;;
11865;SDS011;5992;52.744;6.898;2022-12-29T04:03:44;1.70;;;1.07;;
11865;SDS011;5992;52.744;6.898;2022-12-29T04:06:57;1.40;;;0.70;;
11865;SDS011;5992;52.744;6.898;2022-12-29T04:10:10;0.70;;;0.70;;
11865;SDS011;5992;52.744;6.898;2022-12-29T04:13:23;1.07;;;0.90;;
11865;SDS011;5992;52.744;6.898;2022-12-29T04:16:49;1.33;;;1.00;;
11865;SDS011;5992;52.744;6.898;2022-12-29T04:20:01;1.00;;;0.90;;
11865;SDS011;5992;52.744;6.898;2022-12-29T04:23:16;3.60;;;0.80;;
11865;SDS011;5992;52.744;6.898;2022-12-29T04:26:28;2.50;;;0.90;;
11865;SDS011;5992;52.744;6.898;2022-12-29T04:29:42;0.97;;;0.87;;
11865;SDS011;5992;52.744;6.898;2022-12-29T04:33:06;0.70;;;0.70;;
11865;SDS011;5992;52.744;6.898;2022-12-29T04:36:30;1.00;;;0.77;;
11865;SDS011;5992;52.744;6.898;2022-12-29T04:39:42;2.53;;;0.93;;
11865;SDS011;5992;52.744;6.898;2022-12-29T04:42:54;1.13;;;0.70;;
11865;SDS011;5992;52.744;6.898;2022-12-29T04:46:19;1.30;;;0.70;;
11865;SDS011;5992;52.744;6.898;2022-12-29T04:49:45;0.83;;;0.53;;
11865;SDS011;5992;52.744;6.898;2022-12-29T04:52:57;1.55;;;0.80;;
11865;SDS011;5992;52.744;6.898;2022-12-29T04:56:11;1.63;;;0.83;;
11865;SDS011;5992;52.744;6.898;2022-12-29T04:59:23;1.50;;;0.73;;
11865;SDS011;5992;52.744;6.898;2022-12-29T05:02:44;1.95;;;0.80;;
11865;SDS011;5992;52.744;6.898;2022-12-29T05:06:08;0.80;;;0.60;;
11865;SDS011;5992;52.744;6.898;2022-12-29T05:09:20;1.70;;;0.90;;
11865;SDS011;5992;52.744;6.898;2022-12-29T05:12:20;1.13;;;0.60;;
11865;SDS011;5992;52.744;6.898;2022-12-29T05:15:32;1.83;;;0.70;;
11865;SDS011;5992;52.744;6.898;2022-12-29T05:18:45;2.07;;;0.50;;
11865;SDS011;5992;52.744;6.898;2022-12-29T05:22:10;1.07;;;0.67;;
11865;SDS011;5992;52.744;6.898;2022-12-29T05:25:22;1.25;;;0.70;;
11865;SDS011;5992;52.744;6.898;2022-12-29T05:28:35;2.25;;;0.70;;
11865;SDS011;5992;52.744;6.898;2022-12-29T05:31:35;2.27;;;0.80;;
11865;SDS011;5992;52.744;6.898;2022-12-29T05:34:50;0.80;;;0.70;;
11865;SDS011;5992;52.744;6.898;2022-12-29T05:38:14;2.83;;;0.80;;
11865;SDS011;5992;52.744;6.898;2022-12-29T05:41:38;1.30;;;0.60;;
11865;SDS011;5992;52.744;6.898;2022-12-29T05:44:50;2.47;;;1.13;;
11865;SDS011;5992;52.744;6.898;2022-12-29T05:48:04;5.30;;;0.87;;
11865;SDS011;5992;52.744;6.898;2022-12-29T05:51:20;1.40;;;0.70;;
11865;SDS011;5992;52.744;6.898;2022-12-29T05:54:43;3.73;;;1.23;;
11865;SDS011;5992;52.744;6.898;2022-12-29T05:57:56;2.23;;;1.03;;
11865;SDS011;5992;52.744;6.898;2022-12-29T06:01:20;0.97;;;0.70;;
11865;SDS011;5992;52.744;6.898;2022-12-29T06:04:45;0.53;;;0.53;;
11865;SDS011;5992;52.744;6.898;2022-12-29T06:07:53;1.85;;;0.75;;
11865;SDS011;5992;52.744;6.898;2022-12-29T06:11:16;1.80;;;0.75;;
11865;SDS011;5992;52.744;6.898;2022-12-29T06:14:16;2.40;;;1.13;;
11865;SDS011;5992;52.744;6.898;2022-12-29T06:17:30;3.37;;;1.07;;
11865;SDS011;5992;52.744;6.898;2022-12-29T06:20:42;1.43;;;0.90;;
11865;SDS011;5992;52.744;6.898;2022-12-29T06:23:57;1.23;;;0.60;;
11865;SDS011;5992;52.744;6.898;2022-12-29T06:27:08;3.83;;;1.10;;
11865;SDS011;5992;52.744;6.898;2022-12-29T06:30:20;1.05;;;0.90;;
11865;SDS011;5992;52.744;6.898;2022-12-29T06:33:20;2.30;;;1.07;;
11865;SDS011;5992;52.744;6.898;2022-12-29T06:36:33;0.83;;;0.67;;
11865;SDS011;5992;52.744;6.898;2022-12-29T06:39:35;3.00;;;1.20;;
11865;SDS011;5992;52.744;6.898;2022-12-29T06:43:00;3.17;;;1.10;;
11865;SDS011;5992;52.744;6.898;2022-12-29T06:46:24;2.75;;;1.10;;
11865;SDS011;5992;52.744;6.898;2022-12-29T06:49:36;3.07;;;1.10;;
11865;SDS011;5992;52.744;6.898;2022-12-29T06:52:36;3.23;;;1.40;;
11865;SDS011;5992;52.744;6.898;2022-12-29T06:55:50;2.50;;;0.97;;
11865;SDS011;5992;52.744;6.898;2022-12-29T06:59:02;3.33;;;1.30;;
11865;SDS011;5992;52.744;6.898;2022-12-29T07:02:26;1.53;;;0.87;;
11865;SDS011;5992;52.744;6.898;2022-12-29T07:05:27;4.15;;;1.35;;
11865;SDS011;5992;52.744;6.898;2022-12-29T07:08:51;2.53;;;1.20;;
11865;SDS011;5992;52.744;6.898;2022-12-29T07:11:54;1.85;;;1.00;;
11865;SDS011;5992;52.744;6.898;2022-12-29T07:15:18;2.53;;;0.97;;
11865;SDS011;5992;52.744;6.898;2022-12-29T07:18:18;6.00;;;1.53;;
11865;SDS011;5992;52.744;6.898;2022-12-29T07:21:30;7.70;;;1.50;;
11865;SDS011;5992;52.744;6.898;2022-12-29T07:24:33;4.37;;;1.23;;
11865;SDS011;5992;52.744;6.898;2022-12-29T07:27:47;3.90;;;1.20;;
11865;SDS011;5992;52.744;6.898;2022-12-29T07:31:00;4.50;;;1.85;;
11865;SDS011;5992;52.744;6.898;2022-12-29T07:34:23;5.70;;;1.30;;
11865;SDS011;5992;52.744;6.898;2022-12-29T07:37:23;4.80;;;1.47;;
11865;SDS011;5992;52.744;6.898;2022-12-29T07:40:36;3.47;;;1.10;;
11865;SDS011;5992;52.744;6.898;2022-12-29T07:43:38;4.43;;;1.50;;
11865;SDS011;5992;52.744;6.898;2022-12-29T07:47:04;4.60;;;1.47;;
11865;SDS011;5992;52.744;6.898;2022-12-29T07:50:04;4.35;;;1.50;;
11865;SDS011;5992;52.744;6.898;2022-12-29T07:53:29;5.53;;;1.43;;
11865;SDS011;5992;52.744;6.898;2022-12-29T07:56:29;2.57;;;1.07;;
11865;SDS011;5992;52.744;6.898;2022-12-29T07:59:44;3.13;;;1.20;;
11865;SDS011;5992;52.744;6.898;2022-12-29T08:03:09;3.90;;;1.13;;
11865;SDS011;5992;52.744;6.898;2022-12-29T08:06:09;6.80;;;1.60;;
11865;SDS011;5992;52.744;6.898;2022-12-29T08:09:33;4.93;;;1.43;;
11865;SDS011;5992;52.744;6.898;2022-12-29T08:12:33;3.17;;;1.10;;
11865;SDS011;5992;52.744;6.898;2022-12-29T08:15:47;3.20;;;1.20;;
11865;SDS011;5992;52.744;6.898;2022-12-29T08:19:00;2.90;;;1.10;;
11865;SDS011;5992;52.744;6.898;2022-12-29T08:22:12;3.27;;;1.37;;
11865;SDS011;5992;52.744;6.898;2022-12-29T08:25:25;5.63;;;1.67;;
11865;SDS011;5992;52.744;6.898;2022-12-29T08:28:49;3.07;;;1.33;;
11865;SDS011;5992;52.744;6.898;2022-12-29T08:31:51;3.13;;;1.27;;
11865;SDS011;5992;52.744;6.898;2022-12-29T08:35:16;3.50;;;1.97;;
11865;SDS011;5992;52.744;6.898;2022-12-29T08:38:16;6.50;;;1.50;;
11865;SDS011;5992;52.744;6.898;2022-12-29T08:41:28;2.37;;;1.27;;
11865;SDS011;5992;52.744;6.898;2022-12-29T08:44:28;5.73;;;2.03;;
11865;SDS011;5992;52.744;6.898;2022-12-29T08:47:42;3.77;;;1.40;;
11865;SDS011;5992;52.744;6.898;2022-12-29T08:50:55;4.33;;;1.20;;
11865;SDS011;5992;52.744;6.898;2022-12-29T08:54:08;8.17;;;1.23;;
11865;SDS011;5992;52.744;6.898;2022-12-29T08:57:11;3.70;;;1.10;;
11865;SDS011;5992;52.744;6.898;2022-12-29T09:00:24;5.87;;;1.50;;
11865;SDS011;5992;52.744;6.898;2022-12-29T09:03:37;6.70;;;1.70;;
11865;SDS011;5992;52.744;6.898;2022-12-29T09:07:03;2.47;;;0.90;;
11865;SDS011;5992;52.744;6.898;2022-12-29T09:10:03;3.00;;;0.93;;
11865;SDS011;5992;52.744;6.898;2022-12-29T09:13:28;2.63;;;1.20;;
11865;SDS011;5992;52.744;6.898;2022-12-29T09:16:28;3.73;;;1.10;;
11865;SDS011;5992;52.744;6.898;2022-12-29T09:19:44;3.53;;;1.10;;
11865;SDS011;5992;52.744;6.898;2022-12-29T09:22:57;3.63;;;1.20;;
11865;SDS011;5992;52.744;6.898;2022-12-29T09:26:10;4.63;;;1.00;;
11865;SDS011;5992;52.744;6.898;2022-12-29T09:29:10;3.50;;;1.35;;
11865;SDS011;5992;52.744;6.898;2022-12-29T09:32:22;3.23;;;0.83;;
11865;SDS011;5992;52.744;6.898;2022-12-29T09:35:23;5.93;;;1.27;;
11865;SDS011;5992;52.744;6.898;2022-12-29T09:38:48;1.67;;;0.80;;
11865;SDS011;5992;52.744;6.898;2022-12-29T09:41:49;3.77;;;0.90;;
11865;SDS011;5992;52.744;6.898;2022-12-29T09:45:13;2.30;;;1.03;;
11865;SDS011;5992;52.744;6.898;2022-12-29T09:48:25;6.93;;;1.47;;
11865;SDS011;5992;52.744;6.898;2022-12-29T09:51:50;4.35;;;1.60;;
11865;SDS011;5992;52.744;6.898;2022-12-29T09:55:03;2.70;;;1.20;;
11865;SDS011;5992;52.744;6.898;2022-12-29T09:58:26;5.40;;;1.53;;
11865;SDS011;5992;52.744;6.898;2022-12-29T10:01:42;2.83;;;1.20;;
11865;SDS011;5992;52.744;6.898;2022-12-29T10:05:03;5.40;;;1.60;;
11865;SDS011;5992;52.744;6.898;2022-12-29T10:08:22;3.50;;;1.00;;
11865;SDS011;5992;52.744;6.898;2022-12-29T10:11:57;4.25;;;1.20;;
11865;SDS011;5992;52.744;6.898;2022-12-29T10:15:24;5.10;;;1.37;;
11865;SDS011;5992;52.744;6.898;2022-12-29T10:18:51;3.20;;;1.27;;
11865;SDS011;5992;52.744;6.898;2022-12-29T10:22:05;3.43;;;1.43;;
11865;SDS011;5992;52.744;6.898;2022-12-29T10:25:31;3.43;;;1.37;;
11865;SDS011;5992;52.744;6.898;2022-12-29T10:28:44;7.40;;;1.45;;
11865;SDS011;5992;52.744;6.898;2022-12-29T10:32:09;9.07;;;2.00;;
11865;SDS011;5992;52.744;6.898;2022-12-29T10:35:22;5.90;;;1.85;;
11865;SDS011;5992;52.744;6.898;2022-12-29T10:38:51;2.87;;;0.87;;
11865;SDS011;5992;52.744;6.898;2022-12-29T10:42:07;2.20;;;1.47;;
11865;SDS011;5992;52.744;6.898;2022-12-29T10:45:30;6.60;;;1.80;;
11865;SDS011;5992;52.744;6.898;2022-12-29T10:48:54;5.83;;;1.27;;
11865;SDS011;5992;52.744;6.898;2022-12-29T10:52:07;6.13;;;1.63;;
11865;SDS011;5992;52.744;6.898;2022-12-29T10:55:24;7.57;;;1.40;;
11865;SDS011;5992;52.744;6.898;2022-12-29T10:58:48;2.83;;;1.20;;
11865;SDS011;5992;52.744;6.898;2022-12-29T11:02:11;5.37;;;1.07;;
11865;SDS011;5992;52.744;6.898;2022-12-29T11:05:31;3.57;;;0.90;;
11865;SDS011;5992;52.744;6.898;2022-12-29T11:08:44;4.30;;;1.23;;
11865;SDS011;5992;52.744;6.898;2022-12-29T11:12:17;6.10;;;1.40;;
11865;SDS011;5992;52.744;6.898;2022-12-29T11:15:45;8.33;;;1.77;;
11865;SDS011;5992;52.744;6.898;2022-12-29T11:19:19;7.70;;;1.60;;
11865;SDS011;5992;52.744;6.898;2022-12-29T11:22:34;4.75;;;1.65;;
11865;SDS011;5992;52.744;6.898;2022-12-29T11:25:46;1.75;;;1.00;;
11865;SDS011;5992;52.744;6.898;2022-12-29T11:28:46;3.73;;;1.00;;
11865;SDS011;5992;52.744;6.898;2022-12-29T11:32:12;4.37;;;0.97;;
11865;SDS011;5992;52.744;6.898;2022-12-29T11:35:30;3.33;;;1.23;;
11865;SDS011;5992;52.744;6.898;2022-12-29T11:38:54;4.60;;;1.30;;
11865;SDS011;5992;52.744;6.898;2022-12-29T11:42:06;4.07;;;1.50;;
11865;SDS011;5992;52.744;6.898;2022-12-29T11:45:31;3.07;;;1.00;;
11865;SDS011;5992;52.744;6.898;2022-12-29T11:48:45;3.70;;;1.00;;
11865;SDS011;5992;52.744;6.898;2022-12-29T11:52:12;0.90;;;0.57;;
11865;SDS011;5992;52.744;6.898;2022-12-29T11:55:24;3.45;;;1.00;;
11865;SDS011;5992;52.744;6.898;2022-12-29T11:58:49;4.03;;;1.40;;
11865;SDS011;5992;52.744;6.898;2022-12-29T12:02:02;2.85;;;1.35;;
11865;SDS011;5992;52.744;6.898;2022-12-29T12:05:28;6.80;;;1.83;;
11865;SDS011;5992;52.744;6.898;2022-12-29T12:08:41;2.90;;;1.00;;
11865;SDS011;5992;52.744;6.898;2022-12-29T12:12:05;1.63;;;1.10;;
11865;SDS011;5992;52.744;6.898;2022-12-29T12:15:30;6.35;;;1.25;;
11865;SDS011;5992;52.744;6.898;2022-12-29T12:18:55;3.75;;;1.10;;
11865;SDS011;5992;52.744;6.898;2022-12-29T12:22:10;3.60;;;1.40;;
11865;SDS011;5992;52.744;6.898;2022-12-29T12:25:34;4.10;;;1.23;;
11865;SDS011;5992;52.744;6.898;2022-12-29T12:28:49;6.77;;;1.50;;
11865;SDS011;5992;52.744;6.898;2022-12-29T12:32:13;7.80;;;1.57;;
11865;SDS011;5992;52.744;6.898;2022-12-29T12:35:28;6.05;;;1.35;;
11865;SDS011;5992;52.744;6.898;2022-12-29T12:38:54;5.55;;;1.75;;
11865;SDS011;5992;52.744;6.898;2022-12-29T12:42:10;6.87;;;1.50;;
11865;SDS011;5992;52.744;6.898;2022-12-29T12:45:40;3.13;;;1.47;;
11865;SDS011;5992;52.744;6.898;2022-12-29T12:48:58;3.53;;;0.93;;
11865;SDS011;5992;52.744;6.898;2022-12-29T12:52:22;6.13;;;1.67;;
11865;SDS011;5992;52.744;6.898;2022-12-29T12:55:41;3.40;;;1.45;;
11865;SDS011;5992;52.744;6.898;2022-12-29T12:59:06;6.20;;;1.37;;
11865;SDS011;5992;52.744;6.898;2022-12-29T13:02:25;2.60;;;1.10;;
11865;SDS011;5992;52.744;6.898;2022-12-29T13:05:50;6.97;;;1.70;;
11865;SDS011;5992;52.744;6.898;2022-12-29T13:09:06;6.40;;;2.00;;
11865;SDS011;5992;52.744;6.898;2022-12-29T13:12:36;5.73;;;1.87;;
11865;SDS011;5992;52.744;6.898;2022-12-29T13:15:48;6.30;;;2.00;;
11865;SDS011;5992;52.744;6.898;2022-12-29T13:19:13;6.20;;;1.55;;
11865;SDS011;5992;52.744;6.898;2022-12-29T13:22:24;8.30;;;1.85;;
11865;SDS011;5992;52.744;6.898;2022-12-29T13:25:47;6.45;;;1.45;;
11865;SDS011;5992;52.744;6.898;2022-12-29T13:29:04;9.83;;;1.57;;
11865;SDS011;5992;52.744;6.898;2022-12-29T13:32:30;5.87;;;1.93;;
11865;SDS011;5992;52.744;6.898;2022-12-29T13:35:44;7.33;;;1.33;;
11865;SDS011;5992;52.744;6.898;2022-12-29T13:39:08;4.23;;;1.50;;
11865;SDS011;5992;52.744;6.898;2022-12-29T13:42:20;8.15;;;1.60;;
11865;SDS011;5992;52.744;6.898;2022-12-29T13:45:46;6.60;;;1.80;;
11865;SDS011;5992;52.744;6.898;2022-12-29T13:49:02;5.00;;;1.80;;
11865;SDS011;5992;52.744;6.898;2022-12-29T13:52:28;4.50;;;1.40;;
11865;SDS011;5992;52.744;6.898;2022-12-29T13:55:39;3.90;;;1.60;;
11865;SDS011;5992;52.744;6.898;2022-12-29T13:59:04;5.65;;;1.50;;
11865;SDS011;5992;52.744;6.898;2022-12-29T14:02:21;5.75;;;1.60;;
11865;SDS011;5992;52.744;6.898;2022-12-29T14:05:45;6.50;;;1.80;;
11865;SDS011;5992;52.744;6.898;2022-12-29T14:08:58;6.10;;;1.70;;
11865;SDS011;5992;52.744;6.898;2022-12-29T14:12:22;4.10;;;1.55;;
11865;SDS011;5992;52.744;6.898;2022-12-29T14:15:33;6.53;;;2.20;;
11865;SDS011;5992;52.744;6.898;2022-12-29T14:19:04;4.45;;;1.65;;
11865;SDS011;5992;52.744;6.898;2022-12-29T14:22:19;6.10;;;1.50;;
11865;SDS011;5992;52.744;6.898;2022-12-29T14:26:00;7.80;;;1.80;;
11865;SDS011;5992;52.744;6.898;2022-12-29T14:32:47;6.23;;;1.40;;
11865;SDS011;5992;52.744;6.898;2022-12-29T14:36:19;10.53;;;2.13;;
11865;SDS011;5992;52.744;6.898;2022-12-29T14:39:44;4.40;;;1.70;;
11865;SDS011;5992;52.744;6.898;2022-12-29T14:42:56;8.80;;;2.50;;
11865;SDS011;5992;52.744;6.898;2022-12-29T14:46:20;2.10;;;1.53;;
11865;SDS011;5992;52.744;6.898;2022-12-29T14:49:21;7.73;;;1.43;;
11865;SDS011;5992;52.744;6.898;2022-12-29T14:52:47;4.60;;;1.47;;
11865;SDS011;5992;52.744;6.898;2022-12-29T14:55:59;7.07;;;1.77;;
11865;SDS011;5992;52.744;6.898;2022-12-29T14:59:23;4.25;;;1.30;;
11865;SDS011;5992;52.744;6.898;2022-12-29T15:02:48;4.90;;;1.70;;
11865;SDS011;5992;52.744;6.898;2022-12-29T15:06:13;5.60;;;2.23;;
11865;SDS011;5992;52.744;6.898;2022-12-29T15:09:23;8.60;;;2.00;;
11865;SDS011;5992;52.744;6.898;2022-12-29T15:12:47;6.50;;;2.17;;
11865;SDS011;5992;52.744;6.898;2022-12-29T15:15:59;4.03;;;1.80;;
11865;SDS011;5992;52.744;6.898;2022-12-29T15:19:20;9.07;;;2.30;;
11865;SDS011;5992;52.744;6.898;2022-12-29T15:22:32;4.70;;;1.85;;
11865;SDS011;5992;52.744;6.898;2022-12-29T15:25:49;4.85;;;2.00;;
11865;SDS011;5992;52.744;6.898;2022-12-29T15:29:01;9.07;;;1.60;;
11865;SDS011;5992;52.744;6.898;2022-12-29T15:32:20;7.80;;;2.60;;
11865;SDS011;5992;52.744;6.898;2022-12-29T15:35:32;5.53;;;1.83;;
11865;SDS011;5992;52.744;6.898;2022-12-29T15:38:55;6.10;;;1.60;;
11865;SDS011;5992;52.744;6.898;2022-12-29T15:41:59;6.97;;;2.07;;
11865;SDS011;5992;52.744;6.898;2022-12-29T15:45:23;4.57;;;1.60;;
11865;SDS011;5992;52.744;6.898;2022-12-29T15:48:38;4.90;;;2.20;;
11865;SDS011;5992;52.744;6.898;2022-12-29T15:52:05;4.93;;;1.97;;
11865;SDS011;5992;52.744;6.898;2022-12-29T15:55:19;5.90;;;2.00;;
11865;SDS011;5992;52.744;6.898;2022-12-29T15:58:45;7.20;;;2.50;;
11865;SDS011;5992;52.744;6.898;2022-12-29T16:01:57;6.05;;;2.30;;
11865;SDS011;5992;52.744;6.898;2022-12-29T16:05:23;5.93;;;2.60;;
11865;SDS011;5992;52.744;6.898;2022-12-29T16:08:33;7.50;;;2.33;;
11865;SDS011;5992;52.744;6.898;2022-12-29T16:12:01;5.57;;;1.83;;
11865;SDS011;5992;52.744;6.898;2022-12-29T16:15:14;7.17;;;2.53;;
11865;SDS011;5992;52.744;6.898;2022-12-29T16:18:43;5.53;;;1.97;;
11865;SDS011;5992;52.744;6.898;2022-12-29T16:21:54;5.25;;;1.80;;
11865;SDS011;5992;52.744;6.898;2022-12-29T16:25:19;7.40;;;2.20;;
11865;SDS011;5992;52.744;6.898;2022-12-29T16:28:34;3.70;;;1.70;;
11865;SDS011;5992;52.744;6.898;2022-12-29T16:31:58;7.57;;;2.27;;
11865;SDS011;5992;52.744;6.898;2022-12-29T16:35:17;5.37;;;1.77;;
11865;SDS011;5992;52.744;6.898;2022-12-29T16:38:39;3.80;;;1.87;;
11865;SDS011;5992;52.744;6.898;2022-12-29T16:41:39;5.60;;;2.03;;
11865;SDS011;5992;52.744;6.898;2022-12-29T16:44:52;2.40;;;1.60;;
11865;SDS011;5992;52.744;6.898;2022-12-29T16:48:16;4.27;;;1.73;;
11865;SDS011;5992;52.744;6.898;2022-12-29T16:51:36;4.87;;;1.80;;
11865;SDS011;5992;52.744;6.898;2022-12-29T16:58:01;3.93;;;1.33;;
11865;SDS011;5992;52.744;6.898;2022-12-29T17:01:02;6.15;;;1.85;;
11865;SDS011;5992;52.744;6.898;2022-12-29T17:04:28;3.90;;;1.60;;
11865;SDS011;5992;52.744;6.898;2022-12-29T17:07:43;2.53;;;1.40;;
11865;SDS011;5992;52.744;6.898;2022-12-29T17:11:08;4.50;;;1.17;;
11865;SDS011;5992;52.744;6.898;2022-12-29T17:14:30;3.33;;;1.63;;
11865;SDS011;5992;52.744;6.898;2022-12-29T17:17:53;3.90;;;1.35;;
11865;SDS011;5992;52.744;6.898;2022-12-29T17:21:06;2.93;;;1.50;;
11865;SDS011;5992;52.744;6.898;2022-12-29T17:24:30;1.80;;;1.57;;
11865;SDS011;5992;52.744;6.898;2022-12-29T17:27:32;2.20;;;1.40;;
11865;SDS011;5992;52.744;6.898;2022-12-29T17:30:57;2.13;;;1.60;;
11865;SDS011;5992;52.744;6.898;2022-12-29T17:34:08;6.03;;;2.43;;
11865;SDS011;5992;52.744;6.898;2022-12-29T17:37:35;5.23;;;1.43;;
11865;SDS011;5992;52.744;6.898;2022-12-29T17:40:47;4.30;;;1.80;;
11865;SDS011;5992;52.744;6.898;2022-12-29T17:43:59;4.65;;;1.60;;
11865;SDS011;5992;52.744;6.898;2022-12-29T17:47:11;6.65;;;2.15;;
11865;SDS011;5992;52.744;6.898;2022-12-29T17:50:36;6.23;;;2.40;;
11865;SDS011;5992;52.744;6.898;2022-12-29T17:53:38;5.33;;;2.07;;
11865;SDS011;5992;52.744;6.898;2022-12-29T17:57:07;4.57;;;2.27;;
11865;SDS011;5992;52.744;6.898;2022-12-29T18:00:19;2.43;;;2.10;;
11865;SDS011;5992;52.744;6.898;2022-12-29T18:03:43;1.97;;;1.77;;
11865;SDS011;5992;52.744;6.898;2022-12-29T18:06:43;2.00;;;1.80;;
11865;SDS011;5992;52.744;6.898;2022-12-29T18:10:09;2.97;;;2.20;;
11865;SDS011;5992;52.744;6.898;2022-12-29T18:13:22;3.37;;;1.93;;
11865;SDS011;5992;52.744;6.898;2022-12-29T18:16:46;2.70;;;1.73;;
11865;SDS011;5992;52.744;6.898;2022-12-29T18:19:46;4.77;;;1.90;;
11865;SDS011;5992;52.744;6.898;2022-12-29T18:22:58;5.45;;;1.80;;
11865;SDS011;5992;52.744;6.898;2022-12-29T18:26:00;1.73;;;1.37;;
11865;SDS011;5992;52.744;6.898;2022-12-29T18:29:23;2.80;;;1.60;;
11865;SDS011;5992;52.744;6.898;2022-12-29T18:32:23;4.03;;;1.73;;
11865;SDS011;5992;52.744;6.898;2022-12-29T18:35:36;2.97;;;2.07;;
11865;SDS011;5992;52.744;6.898;2022-12-29T18:38:47;3.65;;;1.90;;
11865;SDS011;5992;52.744;6.898;2022-12-29T18:45:16;5.57;;;2.37;;
11865;SDS011;5992;52.744;6.898;2022-12-29T18:48:40;3.67;;;1.90;;
11865;SDS011;5992;52.744;6.898;2022-12-29T18:51:40;3.17;;;1.83;;
11865;SDS011;5992;52.744;6.898;2022-12-29T18:54:53;6.97;;;2.17;;
11865;SDS011;5992;52.744;6.898;2022-12-29T18:57:53;7.37;;;2.50;;
11865;SDS011;5992;52.744;6.898;2022-12-29T19:01:19;4.90;;;2.10;;
11865;SDS011;5992;52.744;6.898;2022-12-29T19:04:31;8.60;;;2.67;;
11865;SDS011;5992;52.744;6.898;2022-12-29T19:07:43;3.07;;;1.63;;
11865;SDS011;5992;52.744;6.898;2022-12-29T19:10:43;3.33;;;1.60;;
11865;SDS011;5992;52.744;6.898;2022-12-29T19:14:09;1.90;;;1.30;;
11865;SDS011;5992;52.744;6.898;2022-12-29T19:17:22;6.67;;;1.60;;
11865;SDS011;5992;52.744;6.898;2022-12-29T19:20:47;3.60;;;1.85;;
11865;SDS011;5992;52.744;6.898;2022-12-29T19:23:58;6.67;;;1.67;;
11865;SDS011;5992;52.744;6.898;2022-12-29T19:27:10;6.27;;;1.80;;
11865;SDS011;5992;52.744;6.898;2022-12-29T19:30:10;3.43;;;1.80;;
11865;SDS011;5992;52.744;6.898;2022-12-29T19:33:36;9.67;;;2.60;;
11865;SDS011;5992;52.744;6.898;2022-12-29T19:36:48;5.90;;;1.93;;
11865;SDS011;5992;52.744;6.898;2022-12-29T19:40:03;5.97;;;1.70;;
11865;SDS011;5992;52.744;6.898;2022-12-29T19:43:04;5.97;;;1.93;;
11865;SDS011;5992;52.744;6.898;2022-12-29T19:46:17;8.80;;;2.20;;
11865;SDS011;5992;52.744;6.898;2022-12-29T19:49:30;3.27;;;1.70;;
11865;SDS011;5992;52.744;6.898;2022-12-29T19:52:54;2.67;;;1.10;;
11865;SDS011;5992;52.744;6.898;2022-12-29T19:55:54;10.93;;;2.93;;
11865;SDS011;5992;52.744;6.898;2022-12-29T19:59:06;6.93;;;2.53;;
11865;SDS011;5992;52.744;6.898;2022-12-29T20:02:12;2.25;;;1.30;;
11865;SDS011;5992;52.744;6.898;2022-12-29T20:05:38;6.07;;;1.70;;
11865;SDS011;5992;52.744;6.898;2022-12-29T20:08:50;7.37;;;1.83;;
11865;SDS011;5992;52.744;6.898;2022-12-29T20:12:02;4.70;;;1.77;;
11865;SDS011;5992;52.744;6.898;2022-12-29T20:14:50;5.37;;;1.67;;